sensor_id;sensor_type;location;lat;lon;timestamp;pressure;altitude;pressure_sealevel;temperature;humidity
18749;BME280;9503;53.560;10.246;2024-01-30T00:01:53;102067.84;;;11.08;65.76
18749;BME280;9503;53.560;10.246;2024-01-30T00:04:19;102067.97;;;11.10;65.07
18749;BME280;9503;53.560;10.246;2024-01-30T00:06:47;102068.78;;;11.22;64.88
18749;BME280;9503;53.560;10.246;2024-01-30T00:09:14;102072.13;;;11.21;64.29
18749;BME280;9503;53.560;10.246;2024-01-30T00:11:40;102064.06;;;11.28;64.37
18749;BME280;9503;53.560;10.246;2024-01-30T00:14:07;102061.84;;;11.21;64.26
18749;BME280;9503;53.560;10.246;2024-01-30T00:16:34;102061.16;;;11.23;64.74
18749;BME280;9503;53.560;10.246;2024-01-30T00:19:00;102067.22;;;11.24;64.29
18749;BME280;9503;53.560;10.246;2024-01-30T00:21:27;102067.88;;;11.21;64.93
18749;BME280;9503;53.560;10.246;2024-01-30T00:23:55;102065.63;;;11.26;64.44
18749;BME280;9503;53.560;10.246;2024-01-30T00:26:22;102080.66;;;10.95;64.69
18749;BME280;9503;53.560;10.246;2024-01-30T00:28:49;102072.78;;;10.80;65.33
18749;BME280;9503;53.560;10.246;2024-01-30T00:31:15;102073.72;;;10.94;65.34
18749;BME280;9503;53.560;10.246;2024-01-30T00:33:42;102069.97;;;10.89;64.60
18749;BME280;9503;53.560;10.246;2024-01-30T00:36:09;102070.25;;;10.93;64.55
18749;BME280;9503;53.560;10.246;2024-01-30T00:38:37;102061.16;;;10.85;64.91
18749;BME280;9503;53.560;10.246;2024-01-30T00:41:07;102058.06;;;10.77;64.46
18749;BME280;9503;53.560;10.246;2024-01-30T00:43:34;102059.00;;;10.66;64.60
18749;BME280;9503;53.560;10.246;2024-01-30T00:46:01;102056.81;;;10.59;65.10
18749;BME280;9503;53.560;10.246;2024-01-30T00:48:28;102052.03;;;10.52;65.07
18749;BME280;9503;53.560;10.246;2024-01-30T00:50:55;102043.81;;;10.44;65.19
18749;BME280;9503;53.560;10.246;2024-01-30T00:53:22;102042.78;;;10.54;65.59
18749;BME280;9503;53.560;10.246;2024-01-30T00:55:48;102041.91;;;10.42;65.42
18749;BME280;9503;53.560;10.246;2024-01-30T00:58:16;102039.06;;;10.26;66.73
18749;BME280;9503;53.560;10.246;2024-01-30T01:00:44;102042.03;;;10.20;66.76
18749;BME280;9503;53.560;10.246;2024-01-30T01:03:11;102038.72;;;10.21;66.35
18749;BME280;9503;53.560;10.246;2024-01-30T01:05:39;102034.69;;;10.13;66.50
18749;BME280;9503;53.560;10.246;2024-01-30T01:08:06;102040.16;;;10.06;66.82
18749;BME280;9503;53.560;10.246;2024-01-30T01:10:33;102038.72;;;10.09;67.01
18749;BME280;9503;53.560;10.246;2024-01-30T01:12:59;102042.72;;;10.06;66.64
18749;BME280;9503;53.560;10.246;2024-01-30T01:15:27;102046.09;;;10.05;67.57
18749;BME280;9503;53.560;10.246;2024-01-30T01:17:54;102051.00;;;10.02;67.16
18749;BME280;9503;53.560;10.246;2024-01-30T01:20:20;102058.00;;;10.16;68.32
18749;BME280;9503;53.560;10.246;2024-01-30T01:22:47;102056.81;;;10.22;67.83
18749;BME280;9503;53.560;10.246;2024-01-30T01:25:14;102063.13;;;10.28;67.29
18749;BME280;9503;53.560;10.246;2024-01-30T01:27:40;102056.56;;;10.31;67.82
18749;BME280;9503;53.560;10.246;2024-01-30T01:30:09;102055.41;;;10.39;67.26
18749;BME280;9503;53.560;10.246;2024-01-30T01:32:38;102056.63;;;10.44;66.84
18749;BME280;9503;53.560;10.246;2024-01-30T01:35:10;102054.38;;;10.49;67.30
18749;BME280;9503;53.560;10.246;2024-01-30T01:37:36;102059.03;;;10.55;66.87
18749;BME280;9503;53.560;10.246;2024-01-30T01:40:04;102054.81;;;10.55;66.30
18749;BME280;9503;53.560;10.246;2024-01-30T01:42:31;102055.91;;;10.59;66.32
18749;BME280;9503;53.560;10.246;2024-01-30T01:44:58;102054.69;;;10.54;66.69
18749;BME280;9503;53.560;10.246;2024-01-30T01:47:24;102044.25;;;10.50;66.60
18749;BME280;9503;53.560;10.246;2024-01-30T01:49:52;102047.03;;;10.42;66.43
18749;BME280;9503;53.560;10.246;2024-01-30T01:52:19;102038.09;;;10.48;66.34
18749;BME280;9503;53.560;10.246;2024-01-30T01:54:46;102041.97;;;10.55;66.26
18749;BME280;9503;53.560;10.246;2024-01-30T01:57:12;102036.56;;;10.50;66.26
18749;BME280;9503;53.560;10.246;2024-01-30T01:59:39;102031.63;;;10.54;66.70
18749;BME280;9503;53.560;10.246;2024-01-30T02:02:07;102029.84;;;10.52;66.25
18749;BME280;9503;53.560;10.246;2024-01-30T02:04:37;102025.19;;;10.47;66.46
18749;BME280;9503;53.560;10.246;2024-01-30T02:07:05;102021.94;;;10.49;66.63
18749;BME280;9503;53.560;10.246;2024-01-30T02:09:32;102026.22;;;10.37;66.84
18749;BME280;9503;53.560;10.246;2024-01-30T02:11:59;102017.38;;;10.45;66.66
18749;BME280;9503;53.560;10.246;2024-01-30T02:14:25;102027.66;;;10.34;67.19
18749;BME280;9503;53.560;10.246;2024-01-30T02:16:52;102016.16;;;10.40;66.21
18749;BME280;9503;53.560;10.246;2024-01-30T02:19:19;102016.16;;;10.40;67.34
18749;BME280;9503;53.560;10.246;2024-01-30T02:21:47;102010.41;;;10.31;67.33
18749;BME280;9503;53.560;10.246;2024-01-30T02:24:14;102005.81;;;10.39;66.35
18749;BME280;9503;53.560;10.246;2024-01-30T02:26:41;102006.97;;;10.56;66.74
18749;BME280;9503;53.560;10.246;2024-01-30T02:29:07;102003.47;;;10.67;65.73
18749;BME280;9503;53.560;10.246;2024-01-30T02:31:34;101999.59;;;10.60;66.52
18749;BME280;9503;53.560;10.246;2024-01-30T02:34:00;101995.09;;;10.69;65.82
18749;BME280;9503;53.560;10.246;2024-01-30T02:36:27;101993.78;;;10.88;65.96
18749;BME280;9503;53.560;10.246;2024-01-30T02:38:55;102001.19;;;10.96;65.30
18749;BME280;9503;53.560;10.246;2024-01-30T02:41:22;101998.63;;;10.96;66.11
18749;BME280;9503;53.560;10.246;2024-01-30T02:43:48;102001.47;;;11.01;65.49
18749;BME280;9503;53.560;10.246;2024-01-30T02:46:15;101998.34;;;11.05;65.66
18749;BME280;9503;53.560;10.246;2024-01-30T02:48:41;101992.75;;;11.11;65.51
18749;BME280;9503;53.560;10.246;2024-01-30T02:51:08;101999.06;;;11.02;65.62
18749;BME280;9503;53.560;10.246;2024-01-30T02:53:35;101996.47;;;11.02;65.35
18749;BME280;9503;53.560;10.246;2024-01-30T02:56:03;101997.38;;;11.16;66.17
18749;BME280;9503;53.560;10.246;2024-01-30T02:58:31;101994.03;;;11.17;65.58
18749;BME280;9503;53.560;10.246;2024-01-30T03:00:57;101995.94;;;11.33;65.41
18749;BME280;9503;53.560;10.246;2024-01-30T03:03:24;101994.31;;;11.22;65.47
18749;BME280;9503;53.560;10.246;2024-01-30T03:05:50;101988.31;;;11.21;65.24
18749;BME280;9503;53.560;10.246;2024-01-30T03:08:17;101982.19;;;11.19;65.34
18749;BME280;9503;53.560;10.246;2024-01-30T03:10:44;101978.63;;;11.17;65.32
18749;BME280;9503;53.560;10.246;2024-01-30T03:13:12;101974.78;;;11.11;65.25
18749;BME280;9503;53.560;10.246;2024-01-30T03:15:41;101964.59;;;11.12;65.72
18749;BME280;9503;53.560;10.246;2024-01-30T03:18:07;101966.56;;;11.16;65.20
18749;BME280;9503;53.560;10.246;2024-01-30T03:20:34;101964.66;;;10.87;66.03
18749;BME280;9503;53.560;10.246;2024-01-30T03:23:00;101968.44;;;11.05;66.25
18749;BME280;9503;53.560;10.246;2024-01-30T03:25:28;101972.41;;;11.14;66.32
18749;BME280;9503;53.560;10.246;2024-01-30T03:27:54;101967.75;;;11.21;65.56
18749;BME280;9503;53.560;10.246;2024-01-30T03:30:22;101960.38;;;11.26;65.62
18749;BME280;9503;53.560;10.246;2024-01-30T03:32:49;101958.47;;;11.23;65.42
18749;BME280;9503;53.560;10.246;2024-01-30T03:35:15;101956.84;;;11.24;65.55
18749;BME280;9503;53.560;10.246;2024-01-30T03:37:42;101963.25;;;11.17;65.87
18749;BME280;9503;53.560;10.246;2024-01-30T03:40:09;101957.72;;;11.24;65.64
18749;BME280;9503;53.560;10.246;2024-01-30T03:42:36;101972.00;;;11.21;65.67
18749;BME280;9503;53.560;10.246;2024-01-30T03:45:04;101962.50;;;11.06;65.38
18749;BME280;9503;53.560;10.246;2024-01-30T03:47:32;101968.25;;;11.02;65.65
18749;BME280;9503;53.560;10.246;2024-01-30T03:49:58;101965.56;;;10.88;66.60
18749;BME280;9503;53.560;10.246;2024-01-30T03:52:25;101960.72;;;10.92;65.64
18749;BME280;9503;53.560;10.246;2024-01-30T03:54:51;101955.78;;;10.82;66.36
18749;BME280;9503;53.560;10.246;2024-01-30T03:57:18;101964.53;;;10.72;66.42
18749;BME280;9503;53.560;10.246;2024-01-30T03:59:44;101954.94;;;10.70;66.90
18749;BME280;9503;53.560;10.246;2024-01-30T04:02:11;101956.88;;;10.61;66.45
18749;BME280;9503;53.560;10.246;2024-01-30T04:04:39;101957.59;;;10.58;66.73
18749;BME280;9503;53.560;10.246;2024-01-30T04:07:06;101946.03;;;10.65;65.93
18749;BME280;9503;53.560;10.246;2024-01-30T04:09:32;101945.31;;;10.54;66.69
18749;BME280;9503;53.560;10.246;2024-01-30T04:11:59;101937.53;;;10.52;66.61
18749;BME280;9503;53.560;10.246;2024-01-30T04:14:28;101942.97;;;10.57;67.58
18749;BME280;9503;53.560;10.246;2024-01-30T04:16:54;101936.19;;;10.58;67.21
18749;BME280;9503;53.560;10.246;2024-01-30T04:19:21;101937.63;;;10.54;67.59
18749;BME280;9503;53.560;10.246;2024-01-30T04:21:49;101940.81;;;10.63;67.41
18749;BME280;9503;53.560;10.246;2024-01-30T04:24:15;101945.38;;;10.67;68.63
18749;BME280;9503;53.560;10.246;2024-01-30T04:26:43;101942.13;;;10.70;68.47
18749;BME280;9503;53.560;10.246;2024-01-30T04:29:10;101943.03;;;10.84;68.21
18749;BME280;9503;53.560;10.246;2024-01-30T04:31:37;101947.88;;;10.92;68.01
18749;BME280;9503;53.560;10.246;2024-01-30T04:34:03;101947.97;;;10.94;67.75
18749;BME280;9503;53.560;10.246;2024-01-30T04:36:30;101944.03;;;10.99;67.89
18749;BME280;9503;53.560;10.246;2024-01-30T04:38:58;101950.06;;;10.99;67.64
18749;BME280;9503;53.560;10.246;2024-01-30T04:41:24;101959.53;;;11.00;66.94
18749;BME280;9503;53.560;10.246;2024-01-30T04:43:51;101958.25;;;10.94;67.07
18749;BME280;9503;53.560;10.246;2024-01-30T04:46:18;101962.50;;;10.93;67.71
18749;BME280;9503;53.560;10.246;2024-01-30T04:48:44;101963.59;;;10.97;67.89
18749;BME280;9503;53.560;10.246;2024-01-30T04:51:11;101968.13;;;11.01;67.08
18749;BME280;9503;53.560;10.246;2024-01-30T04:53:38;101960.75;;;11.05;67.31
18749;BME280;9503;53.560;10.246;2024-01-30T04:56:06;101962.91;;;10.99;67.41
18749;BME280;9503;53.560;10.246;2024-01-30T04:58:33;101966.94;;;10.96;67.37
18749;BME280;9503;53.560;10.246;2024-01-30T05:00:59;101962.38;;;10.92;67.36
18749;BME280;9503;53.560;10.246;2024-01-30T05:03:26;101955.06;;;10.85;68.34
18749;BME280;9503;53.560;10.246;2024-01-30T05:05:53;101959.13;;;10.81;67.54
18749;BME280;9503;53.560;10.246;2024-01-30T05:08:19;101958.91;;;10.78;68.28
18749;BME280;9503;53.560;10.246;2024-01-30T05:10:46;101947.97;;;10.81;67.17
18749;BME280;9503;53.560;10.246;2024-01-30T05:13:14;101953.34;;;10.72;67.57
18749;BME280;9503;53.560;10.246;2024-01-30T05:15:40;101944.59;;;10.68;68.44
18749;BME280;9503;53.560;10.246;2024-01-30T05:18:07;101950.88;;;10.60;67.95
18749;BME280;9503;53.560;10.246;2024-01-30T05:20:34;101941.09;;;10.55;69.15
18749;BME280;9503;53.560;10.246;2024-01-30T05:23:00;101946.72;;;10.62;68.43
18749;BME280;9503;53.560;10.246;2024-01-30T05:25:27;101942.84;;;10.56;69.10
18749;BME280;9503;53.560;10.246;2024-01-30T05:27:53;101945.41;;;10.56;69.34
18749;BME280;9503;53.560;10.246;2024-01-30T05:30:22;101946.53;;;10.59;69.67
18749;BME280;9503;53.560;10.246;2024-01-30T05:32:48;101939.03;;;10.62;68.99
18749;BME280;9503;53.560;10.246;2024-01-30T05:35:15;101940.88;;;10.51;69.22
18749;BME280;9503;53.560;10.246;2024-01-30T05:37:42;101937.59;;;10.66;69.16
18749;BME280;9503;53.560;10.246;2024-01-30T05:40:09;101942.81;;;10.67;69.64
18749;BME280;9503;53.560;10.246;2024-01-30T05:42:36;101945.09;;;10.76;69.69
18749;BME280;9503;53.560;10.246;2024-01-30T05:45:03;101943.94;;;10.84;69.19
18749;BME280;9503;53.560;10.246;2024-01-30T05:47:32;101936.22;;;10.84;69.24
18749;BME280;9503;53.560;10.246;2024-01-30T05:49:58;101940.38;;;10.82;69.21
18749;BME280;9503;53.560;10.246;2024-01-30T05:52:25;101934.78;;;10.88;69.32
18749;BME280;9503;53.560;10.246;2024-01-30T05:54:51;101931.69;;;10.80;69.67
18749;BME280;9503;53.560;10.246;2024-01-30T05:57:18;101922.81;;;10.88;69.34
18749;BME280;9503;53.560;10.246;2024-01-30T05:59:44;101927.84;;;10.87;69.32
18749;BME280;9503;53.560;10.246;2024-01-30T06:02:12;101923.19;;;10.68;70.15
18749;BME280;9503;53.560;10.246;2024-01-30T06:04:40;101923.59;;;10.74;70.07
18749;BME280;9503;53.560;10.246;2024-01-30T06:07:07;101922.31;;;10.94;68.88
18749;BME280;9503;53.560;10.246;2024-01-30T06:09:34;101918.78;;;10.92;69.76
18749;BME280;9503;53.560;10.246;2024-01-30T06:12:00;101914.44;;;10.91;68.91
18749;BME280;9503;53.560;10.246;2024-01-30T06:14:27;101910.09;;;10.90;69.63
18749;BME280;9503;53.560;10.246;2024-01-30T06:16:53;101914.94;;;10.98;69.50
18749;BME280;9503;53.560;10.246;2024-01-30T06:19:20;101899.72;;;11.01;69.72
18749;BME280;9503;53.560;10.246;2024-01-30T06:21:48;101909.09;;;11.01;69.20
18749;BME280;9503;53.560;10.246;2024-01-30T06:24:14;101904.47;;;11.08;69.60
18749;BME280;9503;53.560;10.246;2024-01-30T06:26:41;101911.00;;;11.03;69.93
18749;BME280;9503;53.560;10.246;2024-01-30T06:29:08;101907.72;;;11.06;69.51
18749;BME280;9503;53.560;10.246;2024-01-30T06:31:39;101902.69;;;11.07;69.58
18749;BME280;9503;53.560;10.246;2024-01-30T06:34:06;101895.22;;;11.11;69.11
18749;BME280;9503;53.560;10.246;2024-01-30T06:36:33;101893.72;;;11.27;68.66
18749;BME280;9503;53.560;10.246;2024-01-30T06:39:01;101886.81;;;11.13;68.91
18749;BME280;9503;53.560;10.246;2024-01-30T06:41:27;101887.69;;;11.27;69.10
18749;BME280;9503;53.560;10.246;2024-01-30T06:43:54;101882.34;;;11.37;69.24
18749;BME280;9503;53.560;10.246;2024-01-30T06:46:20;101887.69;;;11.14;70.13
18749;BME280;9503;53.560;10.246;2024-01-30T06:48:47;101892.44;;;11.21;69.30
18749;BME280;9503;53.560;10.246;2024-01-30T06:51:14;101894.03;;;11.19;69.57
18749;BME280;9503;53.560;10.246;2024-01-30T06:53:40;101895.97;;;11.23;69.81
18749;BME280;9503;53.560;10.246;2024-01-30T06:56:08;101895.19;;;11.37;69.79
18749;BME280;9503;53.560;10.246;2024-01-30T06:58:35;101887.88;;;11.43;68.67
18749;BME280;9503;53.560;10.246;2024-01-30T07:01:01;101890.84;;;11.49;68.68
18749;BME280;9503;53.560;10.246;2024-01-30T07:03:28;101887.56;;;11.52;68.48
18749;BME280;9503;53.560;10.246;2024-01-30T07:05:54;101890.59;;;11.59;68.45
18749;BME280;9503;53.560;10.246;2024-01-30T07:08:21;101885.91;;;11.39;69.09
18749;BME280;9503;53.560;10.246;2024-01-30T07:10:48;101893.22;;;11.33;68.88
18749;BME280;9503;53.560;10.246;2024-01-30T07:13:15;101882.81;;;11.45;68.37
18749;BME280;9503;53.560;10.246;2024-01-30T07:15:42;101887.84;;;11.56;68.60
18749;BME280;9503;53.560;10.246;2024-01-30T07:18:09;101889.63;;;11.57;68.54
18749;BME280;9503;53.560;10.246;2024-01-30T07:20:36;101888.34;;;11.51;68.65
18749;BME280;9503;53.560;10.246;2024-01-30T07:23:03;101892.03;;;11.54;68.15
18749;BME280;9503;53.560;10.246;2024-01-30T07:25:30;101897.16;;;11.54;68.63
18749;BME280;9503;53.560;10.246;2024-01-30T07:27:56;101891.41;;;11.58;68.12
18749;BME280;9503;53.560;10.246;2024-01-30T07:30:24;101893.38;;;11.62;68.52
18749;BME280;9503;53.560;10.246;2024-01-30T07:32:51;101887.97;;;11.45;68.74
18749;BME280;9503;53.560;10.246;2024-01-30T07:35:18;101885.69;;;11.49;69.10
18749;BME280;9503;53.560;10.246;2024-01-30T07:37:46;101886.06;;;11.69;68.53
18749;BME280;9503;53.560;10.246;2024-01-30T07:40:13;101886.06;;;11.69;68.76
18749;BME280;9503;53.560;10.246;2024-01-30T07:42:40;101890.31;;;11.68;68.51
18749;BME280;9503;53.560;10.246;2024-01-30T07:45:09;101891.78;;;11.91;68.68
18749;BME280;9503;53.560;10.246;2024-01-30T07:47:37;101883.00;;;12.02;68.18
18749;BME280;9503;53.560;10.246;2024-01-30T07:50:04;101889.84;;;12.02;68.18
18749;BME280;9503;53.560;10.246;2024-01-30T07:52:31;101891.56;;;12.16;67.83
18749;BME280;9503;53.560;10.246;2024-01-30T07:54:58;101890.78;;;12.32;67.42
18749;BME280;9503;53.560;10.246;2024-01-30T07:57:24;101892.22;;;12.27;67.34
18749;BME280;9503;53.560;10.246;2024-01-30T07:59:51;101893.38;;;12.32;67.50
18749;BME280;9503;53.560;10.246;2024-01-30T08:02:17;101895.94;;;12.32;67.48
18749;BME280;9503;53.560;10.246;2024-01-30T08:04:45;101887.53;;;12.34;67.66
18749;BME280;9503;53.560;10.246;2024-01-30T08:07:14;101892.34;;;12.43;67.32
18749;BME280;9503;53.560;10.246;2024-01-30T08:09:40;101896.09;;;12.20;67.80
18749;BME280;9503;53.560;10.246;2024-01-30T08:12:07;101893.81;;;12.39;67.23
18749;BME280;9503;53.560;10.246;2024-01-30T08:14:33;101890.81;;;12.47;67.02
18749;BME280;9503;53.560;10.246;2024-01-30T08:17:00;101890.91;;;12.48;67.05
18749;BME280;9503;53.560;10.246;2024-01-30T08:19:27;101891.25;;;12.39;67.42
18749;BME280;9503;53.560;10.246;2024-01-30T08:21:54;101884.63;;;12.58;66.76
18749;BME280;9503;53.560;10.246;2024-01-30T08:24:21;101879.47;;;12.43;67.41
18749;BME280;9503;53.560;10.246;2024-01-30T08:26:48;101890.13;;;12.49;67.07
18749;BME280;9503;53.560;10.246;2024-01-30T08:29:14;101886.44;;;12.31;67.19
18749;BME280;9503;53.560;10.246;2024-01-30T08:31:41;101882.13;;;12.44;67.59
18749;BME280;9503;53.560;10.246;2024-01-30T08:34:07;101892.88;;;12.52;67.29
18749;BME280;9503;53.560;10.246;2024-01-30T08:36:34;101881.25;;;12.73;66.87
18749;BME280;9503;53.560;10.246;2024-01-30T08:39:02;101873.25;;;12.84;66.33
18749;BME280;9503;53.560;10.246;2024-01-30T08:41:30;101884.41;;;12.99;66.15
18749;BME280;9503;53.560;10.246;2024-01-30T08:43:57;101878.31;;;12.97;65.94
18749;BME280;9503;53.560;10.246;2024-01-30T08:46:23;101874.25;;;13.00;66.23
18749;BME280;9503;53.560;10.246;2024-01-30T08:48:50;101880.72;;;12.94;66.36
18749;BME280;9503;53.560;10.246;2024-01-30T08:51:17;101875.63;;;13.10;65.85
18749;BME280;9503;53.560;10.246;2024-01-30T08:53:43;101873.13;;;13.12;65.58
18749;BME280;9503;53.560;10.246;2024-01-30T08:56:11;101873.13;;;13.26;65.60
18749;BME280;9503;53.560;10.246;2024-01-30T08:58:38;101871.88;;;13.35;65.24
18749;BME280;9503;53.560;10.246;2024-01-30T09:01:05;101882.22;;;13.51;64.66
18749;BME280;9503;53.560;10.246;2024-01-30T09:03:32;101865.63;;;13.46;64.63
18749;BME280;9503;53.560;10.246;2024-01-30T09:05:59;101861.78;;;13.54;64.62
18749;BME280;9503;53.560;10.246;2024-01-30T09:08:25;101850.44;;;13.05;65.38
18749;BME280;9503;53.560;10.246;2024-01-30T09:10:52;101854.34;;;13.44;65.27
18749;BME280;9503;53.560;10.246;2024-01-30T09:13:20;101844.16;;;13.62;64.58
18749;BME280;9503;53.560;10.246;2024-01-30T09:15:46;101841.66;;;13.63;64.67
18749;BME280;9503;53.560;10.246;2024-01-30T09:18:13;101840.50;;;13.42;64.81
18749;BME280;9503;53.560;10.246;2024-01-30T09:20:40;101842.66;;;13.34;65.18
18749;BME280;9503;53.560;10.246;2024-01-30T09:23:06;101843.88;;;13.41;65.11
18749;BME280;9503;53.560;10.246;2024-01-30T09:25:33;101845.44;;;13.53;64.67
18749;BME280;9503;53.560;10.246;2024-01-30T09:28:00;101840.28;;;13.70;64.21
18749;BME280;9503;53.560;10.246;2024-01-30T09:30:28;101843.31;;;13.30;65.08
18749;BME280;9503;53.560;10.246;2024-01-30T09:32:55;101848.75;;;13.83;64.65
18749;BME280;9503;53.560;10.246;2024-01-30T09:35:21;101848.13;;;14.04;63.77
18749;BME280;9503;53.560;10.246;2024-01-30T09:37:48;101859.41;;;13.90;64.17
18749;BME280;9503;53.560;10.246;2024-01-30T09:40:14;101857.38;;;14.33;63.78
18749;BME280;9503;53.560;10.246;2024-01-30T09:42:46;101863.72;;;14.23;63.45
18749;BME280;9503;53.560;10.246;2024-01-30T09:45:13;101863.47;;;14.35;63.66
18749;BME280;9503;53.560;10.246;2024-01-30T09:47:43;101876.53;;;14.38;63.80
18749;BME280;9503;53.560;10.246;2024-01-30T09:50:11;101867.09;;;14.38;63.62
18749;BME280;9503;53.560;10.246;2024-01-30T09:52:38;101874.34;;;14.29;63.56
18749;BME280;9503;53.560;10.246;2024-01-30T09:55:06;101871.91;;;14.65;63.09
18749;BME280;9503;53.560;10.246;2024-01-30T09:57:34;101867.09;;;14.55;63.21
18749;BME280;9503;53.560;10.246;2024-01-30T10:00:01;101871.34;;;14.88;62.40
18749;BME280;9503;53.560;10.246;2024-01-30T10:02:28;101877.38;;;14.71;62.76
18749;BME280;9503;53.560;10.246;2024-01-30T10:04:56;101870.16;;;14.82;62.63
18749;BME280;9503;53.560;10.246;2024-01-30T10:07:22;101871.00;;;14.99;61.97
18749;BME280;9503;53.560;10.246;2024-01-30T10:09:49;101866.41;;;15.11;62.25
18749;BME280;9503;53.560;10.246;2024-01-30T10:12:15;101859.25;;;14.87;61.62
18749;BME280;9503;53.560;10.246;2024-01-30T10:14:42;101851.06;;;14.78;62.29
18749;BME280;9503;53.560;10.246;2024-01-30T10:17:10;101850.25;;;14.97;62.30
18749;BME280;9503;53.560;10.246;2024-01-30T10:19:37;101842.19;;;15.09;62.38
18749;BME280;9503;53.560;10.246;2024-01-30T10:22:05;101835.72;;;14.99;62.34
18749;BME280;9503;53.560;10.246;2024-01-30T10:24:33;101825.53;;;14.84;62.72
18749;BME280;9503;53.560;10.246;2024-01-30T10:27:00;101842.69;;;15.37;61.57
18749;BME280;9503;53.560;10.246;2024-01-30T10:29:27;101827.31;;;14.85;61.73
18749;BME280;9503;53.560;10.246;2024-01-30T10:32:00;101828.31;;;15.25;62.18
18749;BME280;9503;53.560;10.246;2024-01-30T10:34:27;101833.31;;;15.39;61.37
18749;BME280;9503;53.560;10.246;2024-01-30T10:36:59;101829.44;;;15.67;60.53
18749;BME280;9503;53.560;10.246;2024-01-30T10:39:29;101833.13;;;15.72;60.61
18749;BME280;9503;53.560;10.246;2024-01-30T10:42:00;101827.38;;;16.18;59.82
18749;BME280;9503;53.560;10.246;2024-01-30T10:44:33;101828.19;;;16.17;59.53
18749;BME280;9503;53.560;10.246;2024-01-30T10:47:05;101826.25;;;16.32;59.54
18749;BME280;9503;53.560;10.246;2024-01-30T10:49:33;101818.09;;;15.45;60.54
18749;BME280;9503;53.560;10.246;2024-01-30T10:52:01;101823.38;;;15.66;60.61
18749;BME280;9503;53.560;10.246;2024-01-30T10:54:30;101813.22;;;16.10;59.86
18749;BME280;9503;53.560;10.246;2024-01-30T10:57:00;101822.22;;;15.98;60.24
18749;BME280;9503;53.560;10.246;2024-01-30T10:59:29;101820.78;;;15.86;60.18
18749;BME280;9503;53.560;10.246;2024-01-30T11:01:57;101820.81;;;16.26;59.39
18749;BME280;9503;53.560;10.246;2024-01-30T11:04:24;101828.75;;;15.90;61.01
18749;BME280;9503;53.560;10.246;2024-01-30T11:06:51;101820.25;;;16.33;59.52
18749;BME280;9503;53.560;10.246;2024-01-30T11:09:18;101816.25;;;16.61;58.98
18749;BME280;9503;53.560;10.246;2024-01-30T11:11:50;101814.69;;;16.45;59.18
18749;BME280;9503;53.560;10.246;2024-01-30T11:14:23;101816.28;;;16.41;59.41
18749;BME280;9503;53.560;10.246;2024-01-30T11:16:50;101810.59;;;16.50;59.18
18749;BME280;9503;53.560;10.246;2024-01-30T11:19:22;101817.44;;;16.69;58.67
18749;BME280;9503;53.560;10.246;2024-01-30T11:21:50;101818.13;;;16.65;58.63
18749;BME280;9503;53.560;10.246;2024-01-30T11:24:19;101816.00;;;16.75;58.40
18749;BME280;9503;53.560;10.246;2024-01-30T11:26:49;101824.06;;;16.62;59.36
18749;BME280;9503;53.560;10.246;2024-01-30T11:29:17;101823.28;;;16.65;58.97
18749;BME280;9503;53.560;10.246;2024-01-30T11:31:51;101814.06;;;16.29;59.49
18749;BME280;9503;53.560;10.246;2024-01-30T11:34:18;101810.13;;;16.79;58.77
18749;BME280;9503;53.560;10.246;2024-01-30T11:36:53;101793.25;;;16.68;58.91
18749;BME280;9503;53.560;10.246;2024-01-30T11:39:24;101793.50;;;16.53;59.63
18749;BME280;9503;53.560;10.246;2024-01-30T11:41:53;101800.13;;;16.26;59.55
18749;BME280;9503;53.560;10.246;2024-01-30T11:44:20;101801.09;;;16.70;59.15
18749;BME280;9503;53.560;10.246;2024-01-30T11:46:48;101803.47;;;16.65;59.16
18749;BME280;9503;53.560;10.246;2024-01-30T11:49:15;101793.72;;;16.59;59.58
18749;BME280;9503;53.560;10.246;2024-01-30T11:51:42;101793.03;;;16.64;59.38
18749;BME280;9503;53.560;10.246;2024-01-30T11:54:09;101793.00;;;16.83;59.07
18749;BME280;9503;53.560;10.246;2024-01-30T11:56:36;101796.94;;;16.96;58.91
18749;BME280;9503;53.560;10.246;2024-01-30T11:59:05;101790.50;;;16.44;59.36
18749;BME280;9503;53.560;10.246;2024-01-30T12:01:32;101789.13;;;16.52;59.44
18749;BME280;9503;53.560;10.246;2024-01-30T12:03:59;101795.59;;;16.83;59.30
18749;BME280;9503;53.560;10.246;2024-01-30T12:06:25;101788.28;;;16.95;59.16
18749;BME280;9503;53.560;10.246;2024-01-30T12:08:57;101794.94;;;17.11;58.69
18749;BME280;9503;53.560;10.246;2024-01-30T12:11:24;101787.78;;;17.26;58.59
18749;BME280;9503;53.560;10.246;2024-01-30T12:13:51;101780.22;;;17.10;59.11
18749;BME280;9503;53.560;10.246;2024-01-30T12:16:19;101782.16;;;17.38;58.29
18749;BME280;9503;53.560;10.246;2024-01-30T12:18:46;101776.69;;;17.54;58.13
18749;BME280;9503;53.560;10.246;2024-01-30T12:21:12;101774.59;;;16.98;59.39
18749;BME280;9503;53.560;10.246;2024-01-30T12:23:42;101774.34;;;17.14;59.50
18749;BME280;9503;53.560;10.246;2024-01-30T12:26:09;101776.00;;;17.34;58.92
18749;BME280;9503;53.560;10.246;2024-01-30T12:28:36;101778.72;;;16.72;59.66
18749;BME280;9503;53.560;10.246;2024-01-30T12:31:03;101779.94;;;16.38;61.11
18749;BME280;9503;53.560;10.246;2024-01-30T12:33:31;101774.28;;;17.12;59.73
18749;BME280;9503;53.560;10.246;2024-01-30T12:36:01;101765.72;;;16.70;60.71
18749;BME280;9503;53.560;10.246;2024-01-30T12:38:28;101775.53;;;16.58;61.26
18749;BME280;9503;53.560;10.246;2024-01-30T12:40:54;101768.63;;;16.78;60.81
18749;BME280;9503;53.560;10.246;2024-01-30T12:43:21;101761.66;;;16.56;61.22
18749;BME280;9503;53.560;10.246;2024-01-30T12:45:48;101763.31;;;16.54;61.67
18749;BME280;9503;53.560;10.246;2024-01-30T12:48:14;101755.72;;;16.79;60.93
18749;BME280;9503;53.560;10.246;2024-01-30T12:50:42;101759.97;;;16.77;61.28